Time;durP1;ratioP1;P1;durP2;ratioP2;P2;SDS_P1;SDS_P2;PMS_P1;PMS_P2;Temp;Humidity;BMP_temperature;BMP_pressure;BME280_temperature;BME280_humidity;BME280_pressure;Samples;Min_cycle;Max_cycle;Signal;HPM_P1;HPM_P2
2023/07/30 00:00:49;;;;;;;1999.90;999.90;;;15.10;99.90;;;;;;5049898;28;20048;-68
2023/07/30 00:03:15;;;;;;;1999.90;999.90;;;15.10;99.90;;;;;;5035655;28;20465;-68
2023/07/30 00:05:40;;;;;;;1999.90;999.90;;;15.00;99.90;;;;;;5031826;28;20075;-68
2023/07/30 00:08:06;;;;;;;1999.90;999.90;;;15.00;99.90;;;;;;5049299;28;20045;-68
2023/07/30 00:10:34;;;;;;;1999.90;999.90;;;15.00;99.90;;;;;;5040794;28;20041;-68
2023/07/30 00:13:00;;;;;;;1999.90;999.90;;;15.00;99.90;;;;;;5049025;28;20025;-68
2023/07/30 00:15:26;;;;;;;1999.90;999.90;;;15.00;99.90;;;;;;5032087;28;20090;-68
2023/07/30 00:17:51;;;;;;;1999.90;999.90;;;14.90;99.90;;;;;;5041796;28;20036;-68
2023/07/30 00:20:17;;;;;;;1999.90;999.90;;;15.00;99.90;;;;;;5029952;28;20041;-68
2023/07/30 00:22:42;;;;;;;1999.90;999.90;;;15.00;99.90;;;;;;5032181;28;20542;-68
2023/07/30 00:25:08;;;;;;;1999.90;999.90;;;15.00;99.90;;;;;;5047139;28;20055;-68
2023/07/30 00:27:34;;;;;;;1999.90;999.90;;;15.00;99.90;;;;;;5046750;28;20493;-68
2023/07/30 00:29:59;;;;;;;1999.90;999.90;;;14.90;99.90;;;;;;5048513;28;20044;-68
2023/07/30 00:32:25;;;;;;;1999.90;999.90;;;14.90;99.90;;;;;;5048357;28;20071;-68
2023/07/30 00:34:50;;;;;;;1999.90;999.90;;;15.00;99.90;;;;;;5029684;28;20045;-68
2023/07/30 00:37:16;;;;;;;1999.90;999.90;;;15.00;99.90;;;;;;5035368;28;20040;-68
2023/07/30 00:39:41;;;;;;;1999.90;999.90;;;15.00;99.90;;;;;;5065084;28;20402;-68
2023/07/30 00:42:07;;;;;;;1999.90;999.90;;;15.00;99.90;;;;;;5049102;28;20159;-68
2023/07/30 00:44:33;;;;;;;1999.90;999.90;;;15.00;99.90;;;;;;5048574;28;20048;-68
2023/07/30 00:46:58;;;;;;;1999.90;999.90;;;15.00;99.90;;;;;;5048510;28;20065;-68
2023/07/30 00:49:24;;;;;;;1999.90;999.90;;;15.00;99.90;;;;;;5031932;28;20048;-68
2023/07/30 00:51:49;;;;;;;1999.90;999.90;;;14.90;99.90;;;;;;5041973;28;20051;-68
2023/07/30 00:54:15;;;;;;;1999.90;999.90;;;14.90;99.90;;;;;;5040818;28;20041;-68
2023/07/30 00:56:48;;;;;;;1999.90;999.90;;;14.90;99.90;;;;;;5043320;28;20134;-68
2023/07/30 00:59:14;;;;;;;1999.90;999.90;;;14.90;99.90;;;;;;5041983;28;20049;-68
2023/07/30 01:01:42;;;;;;;1999.90;999.90;;;14.90;99.90;;;;;;5041757;28;20771;-68
2023/07/30 01:04:09;;;;;;;1999.90;999.90;;;14.90;99.90;;;;;;5017972;28;20045;-68
2023/07/30 01:06:34;;;;;;;1999.90;999.90;;;14.90;99.90;;;;;;5033283;28;20069;-68
2023/07/30 01:09:00;;;;;;;1999.90;999.90;;;14.90;99.90;;;;;;5040024;28;20546;-68
2023/07/30 01:11:26;;;;;;;1999.90;999.90;;;14.90;99.90;;;;;;5036893;28;20508;-68
2023/07/30 01:13:53;;;;;;;1999.90;999.90;;;15.00;99.90;;;;;;5037442;28;20478;-68
2023/07/30 01:16:19;;;;;;;1999.90;999.90;;;15.00;99.90;;;;;;5039548;28;20056;-68
2023/07/30 01:18:45;;;;;;;1999.90;999.90;;;15.00;99.90;;;;;;5028370;28;20690;-69
2023/07/30 01:21:10;;;;;;;1999.90;999.90;;;15.10;99.90;;;;;;5043249;28;20405;-68
2023/07/30 01:23:36;;;;;;;1999.90;999.90;;;15.10;99.90;;;;;;5038197;28;20052;-68
2023/07/30 01:26:08;;;;;;;1999.90;999.90;;;15.10;99.90;;;;;;5039334;28;20029;-68
2023/07/30 01:28:40;;;;;;;1999.90;999.90;;;15.10;99.90;;;;;;5046641;28;20037;-68
2023/07/30 01:31:07;;;;;;;1999.90;999.90;;;15.10;99.90;;;;;;5056063;28;20401;-68
2023/07/30 01:33:33;;;;;;;1999.90;999.90;;;15.10;99.90;;;;;;5040484;28;20047;-69
2023/07/30 01:35:59;;;;;;;1999.90;999.90;;;15.10;99.90;;;;;;5023400;28;20717;-69
2023/07/30 01:38:26;;;;;;;1999.90;999.90;;;15.20;99.90;;;;;;5041130;28;20487;-69
2023/07/30 01:40:52;;;;;;;1999.90;999.90;;;15.20;99.90;;;;;;5025765;28;20041;-68
2023/07/30 01:43:18;;;;;;;1999.90;999.90;;;15.30;99.90;;;;;;5046846;28;20474;-68
2023/07/30 01:45:43;;;;;;;1999.90;999.90;;;15.30;99.90;;;;;;5048337;28;20527;-68
2023/07/30 01:48:09;;;;;;;1999.90;999.90;;;15.40;99.90;;;;;;5047968;28;20040;-68
2023/07/30 01:50:35;;;;;;;1999.90;999.90;;;15.40;99.90;;;;;;5048119;28;20154;-69
2023/07/30 01:53:00;;;;;;;1999.90;999.90;;;15.40;99.90;;;;;;5046402;28;20052;-68
2023/07/30 01:55:26;;;;;;;1999.90;999.90;;;15.50;99.90;;;;;;5037267;28;20041;-68
2023/07/30 01:57:51;;;;;;;1999.90;999.90;;;15.50;99.90;;;;;;5043383;28;20049;-69
2023/07/30 02:00:17;;;;;;;1999.90;999.90;;;15.50;99.90;;;;;;5046692;28;20121;-68
2023/07/30 02:02:42;;;;;;;1999.90;999.90;;;15.50;99.90;;;;;;5058510;28;20099;-68
2023/07/30 02:05:08;;;;;;;1999.90;999.90;;;15.50;99.90;;;;;;5048308;28;20055;-69
2023/07/30 02:07:34;;;;;;;1999.90;999.90;;;15.60;99.90;;;;;;5048967;28;20122;-68
2023/07/30 02:10:00;;;;;;;1999.90;999.90;;;15.60;99.90;;;;;;5047914;28;20080;-69
2023/07/30 02:12:25;;;;;;;1999.90;999.90;;;15.60;99.90;;;;;;5046295;28;20041;-68
2023/07/30 02:14:51;;;;;;;1999.90;999.90;;;15.60;99.90;;;;;;5029321;28;20051;-68
2023/07/30 02:17:16;;;;;;;1999.90;999.90;;;15.60;99.90;;;;;;5046758;28;20040;-68
2023/07/30 02:19:42;;;;;;;1999.90;999.90;;;15.50;99.90;;;;;;5045467;28;20051;-69
2023/07/30 02:22:08;;;;;;;1999.90;999.90;;;15.50;99.90;;;;;;5046912;28;20512;-68
2023/07/30 02:24:33;;;;;;;1999.90;999.90;;;15.50;99.90;;;;;;5033542;28;20040;-68
2023/07/30 02:26:59;;;;;;;1999.90;999.90;;;15.50;99.90;;;;;;5052371;28;20457;-68
2023/07/30 02:29:25;;;;;;;1999.90;999.90;;;15.50;99.90;;;;;;5040543;28;20041;-68
2023/07/30 02:31:50;;;;;;;1999.90;999.90;;;15.50;99.90;;;;;;5044329;28;20496;-68
2023/07/30 02:34:16;;;;;;;1999.90;999.90;;;15.40;99.90;;;;;;5043090;28;20049;-69
2023/07/30 02:36:42;;;;;;;1999.90;999.90;;;15.40;99.90;;;;;;5044628;28;20535;-68
2023/07/30 02:39:07;;;;;;;1999.90;999.90;;;15.40;99.90;;;;;;5048578;28;20050;-68
2023/07/30 02:41:33;;;;;;;1999.90;999.90;;;15.30;99.90;;;;;;5044348;28;20497;-68
2023/07/30 02:43:58;;;;;;;1999.90;999.90;;;15.30;99.90;;;;;;5029853;28;20053;-69
2023/07/30 02:46:24;;;;;;;1999.90;999.90;;;15.30;99.90;;;;;;5060423;28;20037;-68
2023/07/30 02:48:50;;;;;;;1999.90;999.90;;;15.20;99.90;;;;;;5046955;28;20072;-69
2023/07/30 02:51:15;;;;;;;1999.90;999.90;;;15.20;99.90;;;;;;5044561;28;20037;-68
2023/07/30 02:53:44;;;;;;;1999.90;999.90;;;15.20;99.90;;;;;;5028755;28;20040;-68
2023/07/30 02:56:09;;;;;;;1999.90;999.90;;;15.20;99.90;;;;;;5046442;28;20743;-69
2023/07/30 02:58:35;;;;;;;1999.90;999.90;;;15.20;99.90;;;;;;5029943;28;20080;-68
2023/07/30 03:01:07;;;;;;;1999.90;999.90;;;15.20;99.90;;;;;;5034384;28;20053;-68
2023/07/30 03:03:33;;;;;;;1999.90;999.90;;;15.20;99.90;;;;;;5043244;28;20045;-68
2023/07/30 03:05:59;;;;;;;1999.90;999.90;;;15.20;99.90;;;;;;5020911;28;20045;-68
2023/07/30 03:08:25;;;;;;;1999.90;999.90;;;15.20;99.90;;;;;;5026876;28;20056;-68
2023/07/30 03:10:50;;;;;;;1999.90;999.90;;;15.10;99.90;;;;;;5014116;28;20037;-68
2023/07/30 03:13:16;;;;;;;1999.90;999.90;;;15.10;99.90;;;;;;5023920;28;20051;-68
2023/07/30 03:15:41;;;;;;;1999.90;999.90;;;15.10;99.90;;;;;;5046094;28;20649;-69
2023/07/30 03:18:07;;;;;;;1999.90;999.90;;;15.10;99.90;;;;;;5046038;28;20068;-68
2023/07/30 03:20:32;;;;;;;1999.90;999.90;;;15.10;99.90;;;;;;5023118;28;20465;-68
2023/07/30 03:22:58;;;;;;;1999.90;999.90;;;15.00;99.90;;;;;;5042666;28;20066;-68
2023/07/30 03:25:24;;;;;;;1999.90;999.90;;;15.00;99.90;;;;;;5044872;28;20124;-68
2023/07/30 03:27:49;;;;;;;1999.90;999.90;;;15.00;99.90;;;;;;5040923;28;20095;-69
2023/07/30 03:30:15;;;;;;;1999.90;999.90;;;15.00;99.90;;;;;;5040201;28;20116;-68
2023/07/30 03:32:40;;;;;;;1999.90;999.90;;;15.00;99.90;;;;;;5029282;28;20473;-68
2023/07/30 03:35:06;;;;;;;1999.90;999.90;;;15.00;99.90;;;;;;5040363;28;20121;-68
2023/07/30 03:37:32;;;;;;;1999.90;999.90;;;15.00;99.90;;;;;;5043275;28;20045;-68
2023/07/30 03:39:57;;;;;;;1999.90;999.90;;;15.00;99.90;;;;;;5057276;28;20033;-68
2023/07/30 03:42:23;;;;;;;1999.90;999.90;;;15.00;99.90;;;;;;5013843;28;20044;-68
2023/07/30 03:44:49;;;;;;;1999.90;999.90;;;15.00;99.90;;;;;;5021674;28;20052;-69
2023/07/30 03:47:14;;;;;;;1999.90;999.90;;;15.00;99.90;;;;;;5036802;28;20120;-69
2023/07/30 03:49:40;;;;;;;1999.90;999.90;;;15.00;99.90;;;;;;5049397;28;20043;-69
2023/07/30 03:52:06;;;;;;;1999.90;999.90;;;15.00;99.90;;;;;;5041350;28;20092;-68
2023/07/30 03:54:31;;;;;;;1999.90;999.90;;;15.00;99.90;;;;;;5043831;28;20119;-68
2023/07/30 03:56:57;;;;;;;1999.90;999.90;;;15.10;99.90;;;;;;5050057;28;20094;-68
2023/07/30 03:59:22;;;;;;;1999.90;999.90;;;15.00;99.90;;;;;;5036402;28;20128;-68
2023/07/30 04:01:48;;;;;;;1999.90;999.90;;;15.00;99.90;;;;;;5046936;28;20602;-68
2023/07/30 04:04:14;;;;;;;1999.90;999.90;;;15.10;99.90;;;;;;5047263;28;20123;-68
2023/07/30 04:06:39;;;;;;;1999.90;999.90;;;15.10;99.90;;;;;;5050299;28;20057;-69
2023/07/30 04:09:05;;;;;;;1999.90;999.90;;;15.10;99.90;;;;;;5048478;28;20044;-68
2023/07/30 04:11:30;;;;;;;1999.90;999.90;;;15.10;99.90;;;;;;5038019;28;20040;-69
2023/07/30 04:13:56;;;;;;;1999.90;999.90;;;15.20;99.90;;;;;;5045648;28;20033;-69
2023/07/30 04:16:21;;;;;;;1999.90;999.90;;;15.20;99.90;;;;;;5050617;28;20045;-68
2023/07/30 04:18:47;;;;;;;1999.90;999.90;;;15.20;99.90;;;;;;5049521;28;20106;-68
2023/07/30 04:21:13;;;;;;;1999.90;999.90;;;15.20;99.90;;;;;;5046287;28;20489;-68
2023/07/30 04:23:39;;;;;;;1999.90;999.90;;;15.20;99.90;;;;;;5048445;28;20073;-69
2023/07/30 04:26:04;;;;;;;1999.90;999.90;;;15.20;99.90;;;;;;5048472;28;20036;-68
2023/07/30 04:28:30;;;;;;;1999.90;999.90;;;15.20;99.90;;;;;;5045200;28;20029;-69
2023/07/30 04:30:56;;;;;;;1999.90;999.90;;;15.30;99.90;;;;;;5029731;28;20119;-69
2023/07/30 04:33:21;;;;;;;1999.90;999.90;;;15.30;99.90;;;;;;5050486;28;20079;-68
2023/07/30 04:35:47;;;;;;;1999.90;999.90;;;15.20;99.90;;;;;;5048003;28;20037;-68
2023/07/30 04:38:13;;;;;;;1999.90;999.90;;;15.30;99.90;;;;;;5040241;28;20041;-68
2023/07/30 04:40:39;;;;;;;1999.90;999.90;;;15.40;99.90;;;;;;5043052;28;20032;-69
2023/07/30 04:43:04;;;;;;;1999.90;999.90;;;15.40;99.90;;;;;;5040624;28;20044;-69
2023/07/30 04:45:30;;;;;;;1999.90;999.90;;;15.40;99.90;;;;;;5040401;28;20580;-68
2023/07/30 04:47:56;;;;;;;1999.90;999.90;;;15.50;99.90;;;;;;5027178;28;20099;-68
2023/07/30 04:50:22;;;;;;;1999.90;999.90;;;15.50;99.90;;;;;;5024618;28;20040;-68
2023/07/30 04:52:47;;;;;;;1999.90;999.90;;;15.60;99.90;;;;;;5042571;28;20683;-69
2023/07/30 04:55:13;;;;;;;1999.90;999.90;;;15.60;99.90;;;;;;5032312;28;20429;-69
2023/07/30 04:57:39;;;;;;;1999.90;999.90;;;15.80;99.90;;;;;;5020845;28;20044;-69
2023/07/30 05:00:05;;;;;;;1999.90;999.90;;;15.80;99.90;;;;;;5048522;28;20040;-68
2023/07/30 05:02:31;;;;;;;1999.90;999.90;;;15.90;99.90;;;;;;5041651;28;20041;-69
2023/07/30 05:04:57;;;;;;;1999.90;999.90;;;15.90;99.90;;;;;;5036686;28;20045;-68
2023/07/30 05:07:22;;;;;;;1999.90;999.90;;;15.90;99.90;;;;;;5048911;28;20048;-69
2023/07/30 05:09:48;;;;;;;1999.90;999.90;;;15.90;99.90;;;;;;5047369;28;20072;-68
2023/07/30 05:12:13;;;;;;;1999.90;999.90;;;15.90;99.90;;;;;;5034659;28;20040;-69
2023/07/30 05:14:39;;;;;;;1999.90;999.90;;;16.00;99.90;;;;;;5048834;28;20784;-69
2023/07/30 05:17:05;;;;;;;1999.90;999.90;;;16.00;99.90;;;;;;5038027;28;20049;-69
2023/07/30 05:19:32;;;;;;;1999.90;999.90;;;16.00;99.90;;;;;;5047221;28;20052;-68
2023/07/30 05:21:59;;;;;;;1999.90;999.90;;;16.00;99.90;;;;;;5039606;28;20079;-69
2023/07/30 05:24:25;;;;;;;1999.90;999.90;;;16.10;99.90;;;;;;5031199;28;20059;-68
2023/07/30 05:26:50;;;;;;;1999.90;999.90;;;16.10;99.90;;;;;;5025632;28;20602;-69
2023/07/30 05:29:16;;;;;;;1999.90;999.90;;;16.20;99.90;;;;;;5043410;28;20041;-69
2023/07/30 05:31:41;;;;;;;1999.90;999.90;;;16.30;99.90;;;;;;5053861;28;20449;-69
2023/07/30 05:34:07;;;;;;;1999.90;999.90;;;16.40;99.90;;;;;;5041576;28;20044;-69
2023/07/30 05:36:32;;;;;;;1999.90;999.90;;;16.50;99.90;;;;;;5046556;28;20564;-69
2023/07/30 05:38:58;;;;;;;1999.90;999.90;;;16.50;99.90;;;;;;5039927;28;20037;-69
2023/07/30 05:41:24;;;;;;;1999.90;999.90;;;16.60;99.90;;;;;;5046536;28;20036;-69
2023/07/30 05:43:49;;;;;;;1999.90;999.90;;;16.70;99.90;;;;;;5041141;28;20094;-69
2023/07/30 05:46:15;;;;;;;1999.90;999.90;;;16.80;99.90;;;;;;5042564;28;20500;-69
2023/07/30 05:48:41;;;;;;;1999.90;999.90;;;16.80;99.90;;;;;;5036222;28;20563;-69
2023/07/30 05:51:06;;;;;;;1999.90;999.90;;;16.90;99.90;;;;;;5035233;28;20065;-68
2023/07/30 05:53:32;;;;;;;1999.90;999.90;;;16.90;99.90;;;;;;5043601;28;20044;-68
2023/07/30 05:55:57;;;;;;;1999.90;999.90;;;17.00;99.90;;;;;;5042770;28;20048;-69
2023/07/30 05:58:23;;;;;;;1999.90;999.90;;;17.00;99.90;;;;;;5042631;28;20136;-69
2023/07/30 06:00:49;;;;;;;1999.90;999.90;;;17.10;99.90;;;;;;5039349;28;20048;-69
2023/07/30 06:03:14;;;;;;;1999.90;999.90;;;17.10;99.90;;;;;;5049090;28;20033;-69
2023/07/30 06:05:43;;;;;;;1999.90;999.90;;;17.10;99.90;;;;;;5036840;28;20049;-69
2023/07/30 06:08:09;;;;;;;1999.90;999.90;;;17.20;99.90;;;;;;5023837;28;20276;-69
2023/07/30 06:10:38;;;;;;;1999.90;999.90;;;17.30;99.90;;;;;;5046474;28;20078;-69
2023/07/30 06:13:05;;;;;;;1999.90;999.90;;;17.30;99.90;;;;;;5028083;28;20473;-68
2023/07/30 06:15:32;;;;;;;1999.90;999.90;;;17.40;99.90;;;;;;5046521;28;20049;-68
2023/07/30 06:17:57;;;;;;;1999.90;999.90;;;17.40;99.90;;;;;;5037820;28;20040;-68
2023/07/30 06:20:23;;;;;;;1999.90;999.90;;;17.40;99.90;;;;;;5045956;28;20037;-69
2023/07/30 06:22:48;;;;;;;1999.90;999.90;;;17.40;99.90;;;;;;5039886;28;20103;-69
2023/07/30 06:25:14;;;;;;;1999.90;999.90;;;17.50;99.90;;;;;;5034306;28;20524;-68
2023/07/30 06:27:40;;;;;;;1999.90;999.90;;;17.60;99.90;;;;;;5042840;28;20159;-69
2023/07/30 06:30:06;;;;;;;1999.90;999.90;;;17.70;99.90;;;;;;5047264;28;20120;-69
2023/07/30 06:32:31;;;;;;;1999.90;999.90;;;17.70;99.90;;;;;;5044010;28;20062;-69
2023/07/30 06:34:57;;;;;;;1999.90;999.90;;;17.80;99.90;;;;;;5040570;28;20068;-69
2023/07/30 06:37:23;;;;;;;1999.90;999.90;;;18.00;99.90;;;;;;5044512;28;20571;-69
2023/07/30 06:39:48;;;;;;;1999.90;999.90;;;18.00;99.90;;;;;;5046432;28;20049;-69
2023/07/30 06:42:14;;;;;;;1999.90;999.90;;;18.10;99.90;;;;;;5044118;28;20518;-68
2023/07/30 06:44:39;;;;;;;1999.90;999.90;;;18.10;99.90;;;;;;5046264;28;20049;-68
2023/07/30 06:47:05;;;;;;;1999.90;999.90;;;18.10;99.90;;;;;;5045516;28;20153;-68
2023/07/30 06:49:33;;;;;;;1999.90;999.90;;;18.20;99.90;;;;;;5043290;28;20068;-68
2023/07/30 06:51:59;;;;;;;1999.90;999.90;;;18.30;99.90;;;;;;5047273;28;20143;-69
2023/07/30 06:54:25;;;;;;;1999.90;999.90;;;18.60;99.90;;;;;;5045710;28;20128;-69
2023/07/30 06:56:50;;;;;;;1999.90;999.90;;;18.90;99.90;;;;;;5040614;28;20038;-69
2023/07/30 06:59:16;;;;;;;1999.90;999.90;;;19.00;99.90;;;;;;5043427;28;20102;-68
2023/07/30 07:01:41;;;;;;;1999.90;999.90;;;19.00;99.90;;;;;;5041519;28;20041;-68
2023/07/30 07:04:07;;;;;;;1999.90;999.90;;;19.00;99.90;;;;;;5045094;28;20055;-68
2023/07/30 07:06:33;;;;;;;1999.90;999.90;;;19.20;99.90;;;;;;5031382;28;20049;-68
2023/07/30 07:08:58;;;;;;;1999.90;999.90;;;19.40;99.90;;;;;;5045978;28;20037;-68
2023/07/30 07:11:24;;;;;;;1999.90;999.90;;;19.30;99.90;;;;;;5035680;28;20053;-68
2023/07/30 07:13:49;;;;;;;1999.90;999.90;;;19.60;99.90;;;;;;5025626;28;20046;-68
2023/07/30 07:16:15;;;;;;;1999.90;999.90;;;19.90;99.90;;;;;;5019942;28;20418;-68
2023/07/30 07:18:41;;;;;;;1999.90;999.90;;;20.80;99.90;;;;;;5042867;28;20128;-68
2023/07/30 07:21:07;;;;;;;1999.90;999.90;;;21.60;99.90;;;;;;5041640;28;20083;-68
2023/07/30 07:23:33;;;;;;;1999.90;999.90;;;22.30;99.90;;;;;;5047614;28;20401;-69
2023/07/30 07:25:59;;;;;;;158.27;151.13;;;22.90;99.90;;;;;;5038317;28;20043;-70
2023/07/30 07:28:25;;;;;;;166.80;158.93;;;23.00;99.90;;;;;;5042249;28;20401;-69
2023/07/30 07:30:51;;;;;;;203.27;192.43;;;23.00;99.90;;;;;;5042157;28;20043;-69
2023/07/30 07:33:17;;;;;;;153.02;145.93;;;22.60;99.90;;;;;;5048560;28;20118;-69
2023/07/30 07:35:42;;;;;;;186.02;177.15;;;22.10;99.90;;;;;;5023648;28;20045;-69
2023/07/30 07:38:08;;;;;;;139.45;133.13;;;21.90;99.90;;;;;;5053392;28;20041;-68
2023/07/30 07:40:40;;;;;;;143.10;136.68;;;21.50;99.90;;;;;;5048154;28;20138;-68
2023/07/30 07:43:07;;;;;;;177.90;169.43;;;21.10;99.90;;;;;;5058936;28;20393;-69
2023/07/30 07:45:33;;;;;;;145.55;138.77;;;20.80;99.90;;;;;;5036412;28;20409;-70
2023/07/30 07:47:59;;;;;;;148.43;141.50;;;20.40;99.90;;;;;;5045713;28;20459;-69
2023/07/30 07:50:25;;;;;;;236.30;226.00;;;20.00;99.90;;;;;;5044836;28;20132;-69
2023/07/30 07:52:50;;;;;;;151.20;143.77;;;19.80;99.90;;;;;;5048174;28;20068;-69
2023/07/30 07:55:17;;;;;;;152.15;145.27;;;19.60;99.90;;;;;;5026726;28;20052;-67
2023/07/30 07:57:42;;;;;;;259.52;247.60;;;19.40;99.90;;;;;;5045900;28;20393;-69
2023/07/30 08:00:08;;;;;;;202.73;193.48;;;19.20;99.90;;;;;;5046296;28;20056;-68
2023/07/30 08:02:34;;;;;;;275.85;263.17;;;19.10;99.90;;;;;;5027251;28;20041;-69
2023/07/30 08:05:00;;;;;;;224.20;213.80;;;19.00;99.90;;;;;;5047689;28;20049;-68
2023/07/30 08:07:26;;;;;;;302.98;289.27;;;18.90;99.90;;;;;;5040874;28;20037;-68
2023/07/30 08:09:51;;;;;;;213.68;203.98;;;18.80;99.90;;;;;;5047524;28;20576;-68
2023/07/30 08:12:19;;;;;;;258.80;246.98;;;18.70;99.90;;;;;;5046309;28;20051;-68
2023/07/30 08:14:44;;;;;;;233.43;223.15;;;18.60;99.90;;;;;;5049609;28;20400;-68
2023/07/30 08:17:10;;;;;;;186.40;178.32;;;18.60;99.90;;;;;;5046663;28;20045;-68
2023/07/30 08:19:35;;;;;;;457.30;434.95;;;18.50;99.90;;;;;;5044622;28;20106;-68
2023/07/30 08:22:01;;;;;;;416.27;396.15;;;18.50;99.90;;;;;;5023959;28;20037;-68
2023/07/30 08:24:26;;;;;;;494.88;469.63;;;18.60;99.90;;;;;;5045372;28;20782;-68
2023/07/30 08:26:52;;;;;;;317.15;302.90;;;18.60;99.90;;;;;;5047261;28;20033;-68
2023/07/30 08:29:18;;;;;;;317.63;303.05;;;18.70;99.90;;;;;;5048406;28;20163;-68
2023/07/30 08:31:43;;;;;;;313.52;299.30;;;18.70;99.90;;;;;;5041433;28;20115;-68
2023/07/30 08:34:09;;;;;;;175.30;167.57;;;18.70;99.90;;;;;;5043282;28;20049;-68
2023/07/30 08:36:34;;;;;;;304.90;290.52;;;18.70;99.90;;;;;;5042014;28;20044;-68
2023/07/30 08:39:02;;;;;;;154.80;147.68;;;18.70;99.90;;;;;;5043627;28;20052;-68
2023/07/30 08:41:27;;;;;;;425.95;405.42;;;18.70;99.90;;;;;;5047703;28;20052;-68
2023/07/30 08:43:53;;;;;;;343.65;327.35;;;18.90;99.90;;;;;;5046961;28;20044;-69
2023/07/30 08:46:19;;;;;;;313.23;299.10;;;19.30;99.90;;;;;;5044783;28;20551;-69
2023/07/30 08:48:44;;;;;;;278.05;265.35;;;19.80;99.90;;;;;;5045986;28;20040;-69
2023/07/30 08:51:12;;;;;;;237.43;226.77;;;20.10;99.90;;;;;;5041237;28;20045;-69
2023/07/30 08:53:38;;;;;;;186.38;178.18;;;20.70;99.90;;;;;;5040740;28;20048;-69
2023/07/30 08:56:05;;;;;;;130.00;123.80;;;21.60;99.90;;;;;;5041970;28;20406;-69
2023/07/30 08:58:34;;;;;;;120.68;115.20;;;21.60;99.90;;;;;;5029638;28;20050;-69
2023/07/30 09:01:05;;;;;;;103.82;99.07;;;21.40;99.90;;;;;;5056873;28;20405;-69
2023/07/30 09:03:34;;;;;;;123.95;118.07;;;21.10;99.90;;;;;;5040796;28;20044;-69
2023/07/30 09:05:59;;;;;;;140.05;133.63;;;20.80;99.90;;;;;;5043782;28;20292;-68
2023/07/30 09:08:25;;;;;;;160.57;153.32;;;20.50;99.90;;;;;;5046400;28;20099;-69
2023/07/30 09:10:51;;;;;;;144.40;137.60;;;20.40;99.90;;;;;;5024991;28;20561;-69
2023/07/30 09:13:23;;;;;;;146.25;139.65;;;20.20;99.90;;;;;;5025408;28;20458;-69
2023/07/30 09:15:50;;;;;;;168.63;161.07;;;20.00;99.90;;;;;;5054623;28;20049;-69
2023/07/30 09:18:18;;;;;;;193.40;184.70;;;19.80;99.90;;;;;;5047809;28;20098;-69
2023/07/30 09:20:44;;;;;;;161.30;154.25;;;19.70;99.90;;;;;;5040909;28;20072;-69
2023/07/30 09:23:11;;;;;;;214.70;205.35;;;19.50;99.90;;;;;;5052091;28;20084;-69
2023/07/30 09:25:37;;;;;;;227.88;218.23;;;19.20;99.90;;;;;;5045277;28;20072;-69
2023/07/30 09:28:04;;;;;;;318.50;304.05;;;19.10;99.90;;;;;;5049001;28;20044;-69
2023/07/30 09:30:30;;;;;;;258.83;247.57;;;19.20;99.90;;;;;;5043511;28;20037;-69
2023/07/30 09:32:57;;;;;;;212.73;202.73;;;19.30;99.90;;;;;;5042507;28;20047;-69
2023/07/30 09:35:27;;;;;;;204.55;194.93;;;19.40;99.90;;;;;;5041896;28;20037;-69
2023/07/30 09:38:04;;;;;;;216.18;206.60;;;19.40;99.90;;;;;;5044028;28;20045;-68
2023/07/30 09:40:35;;;;;;;231.40;221.50;;;19.40;99.90;;;;;;5042546;28;20092;-69
2023/07/30 09:43:03;;;;;;;172.90;165.38;;;19.30;99.90;;;;;;5043337;28;20041;-69
2023/07/30 09:45:33;;;;;;;169.02;161.63;;;19.40;99.90;;;;;;5036289;28;20100;-69
2023/07/30 09:47:59;;;;;;;243.65;233.32;;;19.50;99.90;;;;;;5047968;28;20453;-69
2023/07/30 09:50:25;;;;;;;175.55;167.82;;;19.60;99.90;;;;;;5021623;28;20047;-68
2023/07/30 09:52:50;;;;;;;160.15;153.32;;;19.60;99.90;;;;;;5055299;28;20029;-68
2023/07/30 09:55:18;;;;;;;222.20;212.55;;;19.70;99.90;;;;;;5047654;28;20037;-68
2023/07/30 09:57:44;;;;;;;189.48;181.43;;;19.70;99.90;;;;;;5032255;28;20045;-69
2023/07/30 10:00:10;;;;;;;199.77;190.98;;;19.90;99.90;;;;;;5043696;28;20127;-69
2023/07/30 10:02:45;;;;;;;200.15;191.27;;;20.10;99.90;;;;;;5044444;28;20049;-69
2023/07/30 10:05:16;;;;;;;165.20;157.93;;;20.40;99.90;;;;;;5039903;28;20519;-69
2023/07/30 10:07:49;;;;;;;146.80;140.27;;;20.80;99.90;;;;;;5044511;28;20049;-69
2023/07/30 10:10:14;;;;;;;145.00;138.60;;;21.00;99.90;;;;;;5042808;28;20048;-69
2023/07/30 10:12:43;;;;;;;169.68;162.25;;;21.10;99.90;;;;;;5052972;28;20032;-69
2023/07/30 10:15:09;;;;;;;141.75;135.45;;;21.30;99.90;;;;;;5046421;28;20501;-69
2023/07/30 10:17:35;;;;;;;223.43;213.25;;;21.50;99.90;;;;;;5040993;28;20050;-69
2023/07/30 10:20:19;;;;;;;156.65;149.57;;;21.60;99.90;;;;;;5054307;28;20056;-69
2023/07/30 10:22:46;;;;;;;148.63;141.88;;;21.60;99.90;;;;;;5038551;28;20052;-68
2023/07/30 10:25:12;;;;;;;211.15;201.48;;;21.50;99.90;;;;;;5046723;28;20101;-69
2023/07/30 10:27:40;;;;;;;200.38;191.18;;;20.90;99.90;;;;;;5041922;28;20438;-69
2023/07/30 10:30:13;;;;;;;230.80;220.32;;;20.20;99.90;;;;;;5047501;28;20493;-68
2023/07/30 10:32:51;;;;;;;195.07;186.18;;;19.70;99.90;;;;;;5044987;28;20041;-69
2023/07/30 10:35:43;;;;;;;258.27;246.30;;;19.40;99.90;;;;;;5019957;28;20060;-69
2023/07/30 10:38:27;;;;;;;1999.90;999.90;;;19.20;99.90;;;;;;5058420;28;20058;-68
2023/07/30 10:41:01;;;;;;;1999.90;999.90;;;19.20;99.90;;;;;;5018718;28;20064;-69
2023/07/30 10:43:33;;;;;;;1999.90;999.90;;;19.20;99.90;;;;;;5046105;28;20057;-69
2023/07/30 10:45:59;;;;;;;1999.90;999.90;;;19.40;99.90;;;;;;5040064;28;20052;-70
2023/07/30 10:48:35;;;;;;;1999.90;999.90;;;19.70;99.90;;;;;;5039722;28;20036;-69
2023/07/30 10:51:03;;;;;;;145.43;138.68;;;20.20;99.90;;;;;;5064751;28;20044;-69
2023/07/30 10:53:29;;;;;;;1999.90;999.90;;;20.60;99.90;;;;;;5044883;28;20041;-70
2023/07/30 10:55:59;;;;;;;163.38;155.38;;;21.00;99.90;;;;;;5032268;28;20044;-70
2023/07/30 10:58:26;;;;;;;176.57;168.00;;;21.40;99.90;;;;;;5045618;28;20032;-70
2023/07/30 11:00:51;;;;;;;164.05;156.13;;;21.50;99.90;;;;;;5047527;28;20044;-70
2023/07/30 11:03:17;;;;;;;177.50;169.20;;;21.50;99.90;;;;;;5044815;28;20548;-70
2023/07/30 11:05:47;;;;;;;133.23;126.93;;;21.50;99.90;;;;;;5048922;28;20501;-69
2023/07/30 11:08:14;;;;;;;125.35;119.45;;;21.20;99.90;;;;;;5041274;28;20053;-69
2023/07/30 11:10:49;;;;;;;135.40;129.02;;;20.70;99.90;;;;;;5043615;28;20036;-69
2023/07/30 11:13:15;;;;;;;236.05;223.80;;;20.50;99.90;;;;;;5044991;28;20064;-69
2023/07/30 11:15:42;;;;;;;140.32;133.35;;;20.80;99.90;;;;;;5048951;28;20101;-70
2023/07/30 11:18:08;;;;;;;190.82;180.57;;;21.20;99.90;;;;;;5048997;28;20098;-69
2023/07/30 11:20:34;;;;;;;172.27;164.35;;;21.40;99.90;;;;;;5044919;28;20045;-68
2023/07/30 11:23:00;;;;;;;255.88;242.30;;;21.60;99.90;;;;;;5050238;28;20493;-70
2023/07/30 11:25:25;;;;;;;166.98;159.20;;;21.90;99.90;;;;;;5040670;28;20041;-69
2023/07/30 11:27:51;;;;;;;120.68;115.15;;;21.90;99.90;;;;;;5048996;28;20036;-69
2023/07/30 11:30:18;;;;;;;134.45;128.63;;;21.90;99.90;;;;;;5045114;28;20400;-69
2023/07/30 11:32:44;;;;;;;156.20;146.63;;;21.80;99.90;;;;;;5039126;28;20052;-70
2023/07/30 11:35:12;;;;;;;159.50;152.13;;;21.60;99.90;;;;;;5046517;28;20049;-70
2023/07/30 11:37:40;;;;;;;349.67;332.52;;;21.20;99.90;;;;;;5039438;28;20545;-69
2023/07/30 11:40:12;;;;;;;165.05;157.40;;;21.20;99.90;;;;;;5065902;28;20098;-70
2023/07/30 11:42:39;;;;;;;155.00;147.02;;;21.50;99.90;;;;;;5044908;28;20396;-70
2023/07/30 11:45:22;;;;;;;120.55;114.90;;;21.80;99.90;;;;;;5042772;28;20454;-69
2023/07/30 11:47:48;;;;;;;126.30;120.30;;;22.00;99.90;;;;;;5025845;28;20034;-70
2023/07/30 11:50:14;;;;;;;196.02;185.52;;;22.10;99.90;;;;;;5041409;28;20047;-70
2023/07/30 11:52:54;;;;;;;133.38;127.43;;;21.90;99.90;;;;;;5047436;28;20029;-70
2023/07/30 11:55:19;;;;;;;135.38;129.15;;;21.50;99.90;;;;;;5038211;28;20048;-69
2023/07/30 11:57:45;;;;;;;154.93;147.40;;;21.20;99.90;;;;;;5040084;28;20056;-69
2023/07/30 12:00:11;;;;;;;203.13;193.00;;;20.60;99.90;;;;;;5044180;28;20077;-69